<?xml version="1.0" encoding="UTF-8" standalone="no" ?><gpx xmlns="http://www.topografix.com/GPX/1/1" xmlns:gpxx="http://www.garmin.com/xmlschemas/GpxExtensions/v3" xmlns:gpxtrkx="http://www.garmin.com/xmlschemas/TrackStatsExtension/v1" xmlns:wptx1="http://www.garmin.com/xmlschemas/WaypointExtension/v1" xmlns:gpxtpx="http://www.garmin.com/xmlschemas/TrackPointExtension/v1" creator="Oregon 700" version="1.1" xmlns:xsi="http://www.w3.org/2001/XMLSchema-instance" xsi:schemaLocation="http://www.topografix.com/GPX/1/1 http://www.topografix.com/GPX/1/1/gpx.xsd http://www.garmin.com/xmlschemas/GpxExtensions/v3 http://www8.garmin.com/xmlschemas/GpxExtensionsv3.xsd http://www.garmin.com/xmlschemas/TrackStatsExtension/v1 http://www8.garmin.com/xmlschemas/TrackStatsExtension.xsd http://www.garmin.com/xmlschemas/WaypointExtension/v1 http://www8.garmin.com/xmlschemas/WaypointExtensionv1.xsd http://www.garmin.com/xmlschemas/TrackPointExtension/v1 http://www.garmin.com/xmlschemas/TrackPointExtensionv1.xsd"><metadata><link href="http://www.garmin.com"><text>Garmin International</text></link><time>2023-03-15T22:16:22Z</time></metadata><trk><name>Current Track: 15 MAR 2023 10:03</name><extensions><gpxx:TrackExtension><gpxx:DisplayColor>Cyan</gpxx:DisplayColor></gpxx:TrackExtension><gpxtrkx:TrackStatsExtension><gpxtrkx:Distance>5376.000</gpxtrkx:Distance><gpxtrkx:TimerTime>8522</gpxtrkx:TimerTime><gpxtrkx:TotalElapsedTime>43985</gpxtrkx:TotalElapsedTime><gpxtrkx:MovingTime>6863</gpxtrkx:MovingTime><gpxtrkx:StoppedTime>1661</gpxtrkx:StoppedTime><gpxtrkx:MovingSpeed>0.783</gpxtrkx:MovingSpeed><gpxtrkx:MaxSpeed>1.695</gpxtrkx:MaxSpeed><gpxtrkx:MaxElevation>0.000</gpxtrkx:MaxElevation><gpxtrkx:MinElevation>-64.340</gpxtrkx:MinElevation><gpxtrkx:Ascent>99.000</gpxtrkx:Ascent><gpxtrkx:Descent>90.706</gpxtrkx:Descent><gpxtrkx:AvgAscentRate>0.039</gpxtrkx:AvgAscentRate><gpxtrkx:MaxAscentRate>0.056</gpxtrkx:MaxAscentRate><gpxtrkx:AvgDescentRate>0.038</gpxtrkx:AvgDescentRate><gpxtrkx:MaxDescentRate>-0.047</gpxtrkx:MaxDescentRate><gpxtrkx:Calories>246</gpxtrkx:Calories></gpxtrkx:TrackStatsExtension></extensions><trkseg><trkpt lat="52.0031767432" lon="-2.2255250439"><ele>-44.29</ele><time>2023-03-15T10:03:17Z</time></trkpt><trkpt lat="52.0031602308" lon="-2.2254418116"><ele>-44.08</ele><time>2023-03-15T10:03:42Z</time></trkpt><trkpt lat="52.0031418744" lon="-2.2253916878"><ele>-43.97</ele><time>2023-03-15T10:03:55Z</time></trkpt><trkpt lat="52.0031351689" lon="-2.2253788635"><ele>-44.14</ele><time>2023-03-15T10:03:56Z</time></trkpt><trkpt lat="52.0030526910" lon="-2.2251823079"><ele>-43.27</ele><time>2023-03-15T10:04:09Z</time></trkpt><trkpt lat="52.0028841309" lon="-2.2250138316"><ele>-42.80</ele><time>2023-03-15T10:04:29Z</time></trkpt><trkpt lat="52.0027185883" lon="-2.2248943895"><ele>-42.29</ele><time>2023-03-15T10:04:48Z</time></trkpt><trkpt lat="52.0025771856" lon="-2.2247645538"><ele>-41.96</ele><time>2023-03-15T10:05:07Z</time></trkpt><trkpt lat="52.0024401415" lon="-2.2246083152"><ele>-41.82</ele><time>2023-03-15T10:05:26Z</time></trkpt><trkpt lat="52.0022844058" lon="-2.2244343907"><ele>-42.14</ele><time>2023-03-15T10:05:47Z</time></trkpt><trkpt lat="52.0021773688" lon="-2.2242828459"><ele>-42.79</ele><time>2023-03-15T10:06:06Z</time></trkpt><trkpt lat="52.0021552406" lon="-2.2242819238"><ele>-42.79</ele><time>2023-03-15T10:06:26Z</time></trkpt><trkpt lat="52.0020920411" lon="-2.2244118433"><ele>-42.79</ele><time>2023-03-15T10:06:47Z</time></trkpt><trkpt lat="52.0020103175" lon="-2.2245480493"><ele>-42.79</ele><time>2023-03-15T10:07:10Z</time></trkpt><trkpt lat="52.0019071363" lon="-2.2247754503"><ele>-42.79</ele><time>2023-03-15T10:07:29Z</time></trkpt><trkpt lat="52.0018317830" lon="-2.2248982452"><ele>-42.79</ele><time>2023-03-15T10:07:54Z</time></trkpt><trkpt lat="52.0017528255" lon="-2.2250196990"><ele>-42.79</ele><time>2023-03-15T10:08:16Z</time></trkpt><trkpt lat="52.0017271768" lon="-2.2250499576"><ele>-42.79</ele><time>2023-03-15T10:08:39Z</time></trkpt><trkpt lat="52.0017033722" lon="-2.2250784561"><ele>-42.79</ele><time>2023-03-15T10:09:05Z</time></trkpt><trkpt lat="52.0016949065" lon="-2.2250953037"><ele>-42.79</ele><time>2023-03-15T10:09:28Z</time></trkpt><trkpt lat="52.0016933139" lon="-2.2251129895"><ele>-42.79</ele><time>2023-03-15T10:09:56Z</time></trkpt><trkpt lat="52.0016236603" lon="-2.2252167575"><ele>-42.79</ele><time>2023-03-15T10:10:16Z</time></trkpt><trkpt lat="52.0014659129" lon="-2.2254356090"><ele>-42.79</ele><time>2023-03-15T10:10:39Z</time></trkpt><trkpt lat="52.0013592951" lon="-2.2255774308"><ele>-42.79</ele><time>2023-03-15T10:10:57Z</time></trkpt><trkpt lat="52.0012400206" lon="-2.2257221024"><ele>-40.42</ele><time>2023-03-15T10:11:14Z</time></trkpt><trkpt lat="52.0012238435" lon="-2.2257345077"><ele>-39.63</ele><time>2023-03-15T10:11:16Z</time></trkpt><trkpt lat="52.0011151303" lon="-2.2258562129"><ele>-39.33</ele><time>2023-03-15T10:11:33Z</time></trkpt><trkpt lat="52.0010194927" lon="-2.2259930056"><ele>-39.31</ele><time>2023-03-15T10:11:54Z</time></trkpt><trkpt lat="52.0009731408" lon="-2.2260598093"><ele>-39.37</ele><time>2023-03-15T10:12:12Z</time></trkpt><trkpt lat="52.0009948500" lon="-2.2260563727"><ele>-39.38</ele><time>2023-03-15T10:12:32Z</time></trkpt><trkpt lat="52.0010291319" lon="-2.2260657605"><ele>-39.01</ele><time>2023-03-15T10:12:56Z</time></trkpt><trkpt lat="52.0008972846" lon="-2.2261447180"><ele>-39.71</ele><time>2023-03-15T10:13:12Z</time></trkpt><trkpt lat="52.0008529443" lon="-2.2261572070"><ele>-39.36</ele><time>2023-03-15T10:13:16Z</time></trkpt><trkpt lat="52.0008172374" lon="-2.2262105998"><ele>-40.65</ele><time>2023-03-15T10:13:32Z</time></trkpt><trkpt lat="52.0008024015" lon="-2.2262349911"><ele>-40.29</ele><time>2023-03-15T10:13:59Z</time></trkpt><trkpt lat="52.0007086080" lon="-2.2262670100"><ele>-41.75</ele><time>2023-03-15T10:14:19Z</time></trkpt><trkpt lat="52.0005770121" lon="-2.2263642401"><ele>-41.50</ele><time>2023-03-15T10:14:38Z</time></trkpt><trkpt lat="52.0004414767" lon="-2.2264112625"><ele>-42.35</ele><time>2023-03-15T10:14:55Z</time></trkpt><trkpt lat="52.0003021695" lon="-2.2264902201"><ele>-43.03</ele><time>2023-03-15T10:15:12Z</time></trkpt><trkpt lat="52.0002275705" lon="-2.2265218198"><ele>-43.44</ele><time>2023-03-15T10:15:21Z</time></trkpt><trkpt lat="52.0000789594" lon="-2.2266203910"><ele>-44.52</ele><time>2023-03-15T10:15:37Z</time></trkpt><trkpt lat="51.9998960663" lon="-2.2267220635"><ele>-45.29</ele><time>2023-03-15T10:15:57Z</time></trkpt><trkpt lat="51.9997606985" lon="-2.2267840896"><ele>-46.47</ele><time>2023-03-15T10:16:14Z</time></trkpt><trkpt lat="51.9996330421" lon="-2.2268230654"><ele>-47.39</ele><time>2023-03-15T10:16:36Z</time></trkpt><trkpt lat="51.9995716866" lon="-2.2268586885"><ele>-47.42</ele><time>2023-03-15T10:16:56Z</time></trkpt><trkpt lat="51.9994416833" lon="-2.2269569244"><ele>-48.18</ele><time>2023-03-15T10:17:12Z</time></trkpt><trkpt lat="51.9993113447" lon="-2.2269897815"><ele>-48.97</ele><time>2023-03-15T10:17:35Z</time></trkpt><trkpt lat="51.9992258493" lon="-2.2269705869"><ele>-49.29</ele><time>2023-03-15T10:17:57Z</time></trkpt><trkpt lat="51.9991052337" lon="-2.2270504665"><ele>-49.58</ele><time>2023-03-15T10:18:18Z</time></trkpt><trkpt lat="51.9990960974" lon="-2.2270633746"><ele>-49.61</ele><time>2023-03-15T10:18:20Z</time></trkpt><trkpt lat="51.9989896473" lon="-2.2271800507"><ele>-49.99</ele><time>2023-03-15T10:18:41Z</time></trkpt><trkpt lat="51.9989180658" lon="-2.2271425836"><ele>-49.99</ele><time>2023-03-15T10:18:57Z</time></trkpt><trkpt lat="51.9988914113" lon="-2.2269574273"><ele>-50.06</ele><time>2023-03-15T10:19:11Z</time></trkpt><trkpt lat="51.9988436345" lon="-2.2268651426"><ele>-49.54</ele><time>2023-03-15T10:19:32Z</time></trkpt><trkpt lat="51.9988073409" lon="-2.2266249172"><ele>-49.59</ele><time>2023-03-15T10:19:52Z</time></trkpt><trkpt lat="51.9988009706" lon="-2.2266132664"><ele>-49.59</ele><time>2023-03-15T10:19:53Z</time></trkpt><trkpt lat="51.9986903295" lon="-2.2265802417"><ele>-49.22</ele><time>2023-03-15T10:20:08Z</time></trkpt><trkpt lat="51.9985699654" lon="-2.2266097460"><ele>-48.94</ele><time>2023-03-15T10:20:30Z</time></trkpt><trkpt lat="51.9984842185" lon="-2.2267240752"><ele>-49.01</ele><time>2023-03-15T10:20:50Z</time></trkpt><trkpt lat="51.9984925166" lon="-2.2268221434"><ele>-48.90</ele><time>2023-03-15T10:20:57Z</time></trkpt><trkpt lat="51.9985244516" lon="-2.2270271648"><ele>-49.20</ele><time>2023-03-15T10:21:13Z</time></trkpt><trkpt lat="51.9985210150" lon="-2.2271556593"><ele>-49.45</ele><time>2023-03-15T10:21:34Z</time></trkpt><trkpt lat="51.9984497689" lon="-2.2272079624"><ele>-49.46</ele><time>2023-03-15T10:21:56Z</time></trkpt><trkpt lat="51.9983964600" lon="-2.2272181045"><ele>-49.34</ele><time>2023-03-15T10:22:18Z</time></trkpt><trkpt lat="51.9983415585" lon="-2.2272705752"><ele>-49.00</ele><time>2023-03-15T10:22:45Z</time></trkpt><trkpt lat="51.9983168319" lon="-2.2272943798"><ele>-49.01</ele><time>2023-03-15T10:23:15Z</time></trkpt><trkpt lat="51.9982978888" lon="-2.2272821423"><ele>-49.21</ele><time>2023-03-15T10:23:38Z</time></trkpt><trkpt lat="51.9983362779" lon="-2.2272598464"><ele>-49.21</ele><time>2023-03-15T10:24:32Z</time></trkpt><trkpt lat="51.9983222801" lon="-2.2272509616"><ele>-49.21</ele><time>2023-03-15T10:24:56Z</time></trkpt><trkpt lat="51.9983261358" lon="-2.2272626124"><ele>-49.21</ele><time>2023-03-15T10:25:24Z</time></trkpt><trkpt lat="51.9983180054" lon="-2.2272679769"><ele>-44.83</ele><time>2023-03-15T10:25:34Z</time></trkpt><trkpt lat="51.9983171672" lon="-2.2272679769"><ele>-44.96</ele><time>2023-03-15T10:25:35Z</time></trkpt><trkpt lat="51.9983023312" lon="-2.2272435017"><ele>-48.00</ele><time>2023-03-15T10:25:48Z</time></trkpt><trkpt lat="51.9982351083" lon="-2.2272179369"><ele>-48.61</ele><time>2023-03-15T10:26:09Z</time></trkpt><trkpt lat="51.9981651194" lon="-2.2269579303"><ele>-48.23</ele><time>2023-03-15T10:26:37Z</time></trkpt><trkpt lat="51.9980627764" lon="-2.2267177887"><ele>-47.79</ele><time>2023-03-15T10:27:03Z</time></trkpt><trkpt lat="51.9980422407" lon="-2.2265676688"><ele>-47.49</ele><time>2023-03-15T10:27:21Z</time></trkpt><trkpt lat="51.9980263151" lon="-2.2263876256"><ele>-47.49</ele><time>2023-03-15T10:27:46Z</time></trkpt><trkpt lat="51.9980432466" lon="-2.2263850272"><ele>-47.48</ele><time>2023-03-15T10:28:15Z</time></trkpt><trkpt lat="51.9980545621" lon="-2.2263637371"><ele>-50.64</ele><time>2023-03-15T10:28:40Z</time></trkpt><trkpt lat="51.9980563223" lon="-2.2263530921"><ele>-47.38</ele><time>2023-03-15T10:28:43Z</time></trkpt><trkpt lat="51.9980025105" lon="-2.2261433769"><ele>-46.72</ele><time>2023-03-15T10:29:01Z</time></trkpt><trkpt lat="51.9979873393" lon="-2.2258161474"><ele>-46.39</ele><time>2023-03-15T10:29:23Z</time></trkpt><trkpt lat="51.9979726709" lon="-2.2257393692"><ele>-46.38</ele><time>2023-03-15T10:29:27Z</time></trkpt><trkpt lat="51.9979404006" lon="-2.2255332582"><ele>-46.03</ele><time>2023-03-15T10:29:50Z</time></trkpt><trkpt lat="51.9979057834" lon="-2.2252924461"><ele>-45.68</ele><time>2023-03-15T10:30:09Z</time></trkpt><trkpt lat="51.9978804700" lon="-2.2249772865"><ele>-44.96</ele><time>2023-03-15T10:30:37Z</time></trkpt><trkpt lat="51.9978769496" lon="-2.2247599438"><ele>-44.37</ele><time>2023-03-15T10:31:00Z</time></trkpt><trkpt lat="51.9978498761" lon="-2.2246386576"><ele>-44.19</ele><time>2023-03-15T10:31:24Z</time></trkpt><trkpt lat="51.9978171866" lon="-2.2243300360"><ele>-43.76</ele><time>2023-03-15T10:31:48Z</time></trkpt><trkpt lat="51.9977894425" lon="-2.2241256014"><ele>-43.69</ele><time>2023-03-15T10:32:07Z</time></trkpt><trkpt lat="51.9977522269" lon="-2.2238661814"><ele>-43.62</ele><time>2023-03-15T10:32:27Z</time></trkpt><trkpt lat="51.9976939727" lon="-2.2235801071"><ele>-43.43</ele><time>2023-03-15T10:32:50Z</time></trkpt><trkpt lat="51.9975614548" lon="-2.2235351801"><ele>-43.43</ele><time>2023-03-15T10:33:09Z</time></trkpt><trkpt lat="51.9973990135" lon="-2.2236230224"><ele>-43.43</ele><time>2023-03-15T10:33:30Z</time></trkpt><trkpt lat="51.9972519949" lon="-2.2237148881"><ele>-43.43</ele><time>2023-03-15T10:33:52Z</time></trkpt><trkpt lat="51.9971415214" lon="-2.2238049097"><ele>-43.43</ele><time>2023-03-15T10:34:10Z</time></trkpt><trkpt lat="51.9970007893" lon="-2.2238199972"><ele>-43.43</ele><time>2023-03-15T10:34:27Z</time></trkpt><trkpt lat="51.9969508331" lon="-2.2237145528"><ele>-39.32</ele><time>2023-03-15T10:34:43Z</time></trkpt><trkpt lat="51.9969459716" lon="-2.2236965317"><ele>-39.30</ele><time>2023-03-15T10:34:44Z</time></trkpt><trkpt lat="51.9969219156" lon="-2.2236174904"><ele>-38.74</ele><time>2023-03-15T10:35:05Z</time></trkpt><trkpt lat="51.9969294593" lon="-2.2235526983"><ele>-38.85</ele><time>2023-03-15T10:35:30Z</time></trkpt><trkpt lat="51.9969050679" lon="-2.2235080227"><ele>-38.79</ele><time>2023-03-15T10:35:56Z</time></trkpt><trkpt lat="51.9969251007" lon="-2.2235210985"><ele>-38.91</ele><time>2023-03-15T10:36:21Z</time></trkpt><trkpt lat="51.9969074149" lon="-2.2234987188"><ele>-38.23</ele><time>2023-03-15T10:36:50Z</time></trkpt><trkpt lat="51.9969220832" lon="-2.2234858945"><ele>-39.47</ele><time>2023-03-15T10:37:00Z</time></trkpt><trkpt lat="51.9969292078" lon="-2.2234768420"><ele>-38.82</ele><time>2023-03-15T10:37:34Z</time></trkpt><trkpt lat="51.9969073310" lon="-2.2234739084"><ele>-38.79</ele><time>2023-03-15T10:37:58Z</time></trkpt><trkpt lat="51.9969312195" lon="-2.2234782670"><ele>-38.29</ele><time>2023-03-15T10:38:22Z</time></trkpt><trkpt lat="51.9969535992" lon="-2.2234413028"><ele>-38.66</ele><time>2023-03-15T10:38:50Z</time></trkpt><trkpt lat="51.9969631545" lon="-2.2234092839"><ele>-38.66</ele><time>2023-03-15T10:39:18Z</time></trkpt><trkpt lat="51.9969214126" lon="-2.2234199289"><ele>-38.66</ele><time>2023-03-15T10:39:42Z</time></trkpt><trkpt lat="51.9968893100" lon="-2.2234242875"><ele>-38.66</ele><time>2023-03-15T10:40:08Z</time></trkpt><trkpt lat="51.9969168864" lon="-2.2234403808"><ele>-38.66</ele><time>2023-03-15T10:40:37Z</time></trkpt><trkpt lat="51.9968905672" lon="-2.2234598268"><ele>-38.66</ele><time>2023-03-15T10:41:02Z</time></trkpt><trkpt lat="51.9968789164" lon="-2.2234798595"><ele>-38.66</ele><time>2023-03-15T10:41:27Z</time></trkpt><trkpt lat="51.9968651701" lon="-2.2234784346"><ele>-38.66</ele><time>2023-03-15T10:41:53Z</time></trkpt><trkpt lat="51.9968086760" lon="-2.2234018240"><ele>-38.66</ele><time>2023-03-15T10:42:16Z</time></trkpt><trkpt lat="51.9966367632" lon="-2.2235139739"><ele>-38.66</ele><time>2023-03-15T10:42:41Z</time></trkpt><trkpt lat="51.9965323247" lon="-2.2235968709"><ele>-38.66</ele><time>2023-03-15T10:43:03Z</time></trkpt><trkpt lat="51.9964122120" lon="-2.2236901615"><ele>-38.66</ele><time>2023-03-15T10:43:25Z</time></trkpt><trkpt lat="51.9963420555" lon="-2.2237131279"><ele>-38.66</ele><time>2023-03-15T10:43:46Z</time></trkpt><trkpt lat="51.9963423070" lon="-2.2237208392"><ele>-35.90</ele><time>2023-03-15T10:43:53Z</time></trkpt><trkpt lat="51.9963754993" lon="-2.2236284707"><ele>-36.52</ele><time>2023-03-15T10:44:14Z</time></trkpt><trkpt lat="51.9965127949" lon="-2.2235454060"><ele>-36.60</ele><time>2023-03-15T10:44:34Z</time></trkpt><trkpt lat="51.9966519345" lon="-2.2234590724"><ele>-37.37</ele><time>2023-03-15T10:44:53Z</time></trkpt><trkpt lat="51.9968227576" lon="-2.2233159933"><ele>-38.29</ele><time>2023-03-15T10:45:13Z</time></trkpt><trkpt lat="51.9970246777" lon="-2.2231868282"><ele>-39.25</ele><time>2023-03-15T10:45:35Z</time></trkpt><trkpt lat="51.9971833471" lon="-2.2230777796"><ele>-39.86</ele><time>2023-03-15T10:45:55Z</time></trkpt><trkpt lat="51.9972711895" lon="-2.2230341937"><ele>-40.37</ele><time>2023-03-15T10:46:11Z</time></trkpt><trkpt lat="51.9973844290" lon="-2.2229273245"><ele>-40.99</ele><time>2023-03-15T10:46:26Z</time></trkpt><trkpt lat="51.9973939005" lon="-2.2228937130"><ele>-40.03</ele><time>2023-03-15T10:46:46Z</time></trkpt><trkpt lat="51.9974063057" lon="-2.2228842415"><ele>-41.04</ele><time>2023-03-15T10:47:10Z</time></trkpt><trkpt lat="51.9975016918" lon="-2.2228408232"><ele>-40.58</ele><time>2023-03-15T10:47:27Z</time></trkpt><trkpt lat="51.9975404162" lon="-2.2227842454"><ele>-41.39</ele><time>2023-03-15T10:47:47Z</time></trkpt><trkpt lat="51.9976483751" lon="-2.2227499634"><ele>-41.35</ele><time>2023-03-15T10:48:03Z</time></trkpt><trkpt lat="51.9977285061" lon="-2.2226444352"><ele>-41.35</ele><time>2023-03-15T10:48:25Z</time></trkpt><trkpt lat="51.9977431744" lon="-2.2225959878"><ele>-41.35</ele><time>2023-03-15T10:48:44Z</time></trkpt><trkpt lat="51.9977859221" lon="-2.2225402482"><ele>-41.35</ele><time>2023-03-15T10:49:05Z</time></trkpt><trkpt lat="51.9978294242" lon="-2.2223419324"><ele>-41.35</ele><time>2023-03-15T10:49:28Z</time></trkpt><trkpt lat="51.9978282508" lon="-2.2223340534"><ele>-41.35</ele><time>2023-03-15T10:49:29Z</time></trkpt><trkpt lat="51.9978009257" lon="-2.2221480589"><ele>-41.35</ele><time>2023-03-15T10:49:47Z</time></trkpt><trkpt lat="51.9977870956" lon="-2.2219010442"><ele>-41.35</ele><time>2023-03-15T10:50:11Z</time></trkpt><trkpt lat="51.9977979921" lon="-2.2218634933"><ele>-41.35</ele><time>2023-03-15T10:50:39Z</time></trkpt><trkpt lat="51.9977534842" lon="-2.2216102760"><ele>-41.35</ele><time>2023-03-15T10:51:00Z</time></trkpt><trkpt lat="51.9977724273" lon="-2.2212749161"><ele>-41.35</ele><time>2023-03-15T10:51:24Z</time></trkpt><trkpt lat="51.9977886882" lon="-2.2211164143"><ele>-41.35</ele><time>2023-03-15T10:51:40Z</time></trkpt><trkpt lat="51.9978171866" lon="-2.2208403144"><ele>-41.91</ele><time>2023-03-15T10:51:59Z</time></trkpt><trkpt lat="51.9978279155" lon="-2.2205345426"><ele>-42.15</ele><time>2023-03-15T10:52:21Z</time></trkpt><trkpt lat="51.9978584256" lon="-2.2202347219"><ele>-42.27</ele><time>2023-03-15T10:52:43Z</time></trkpt><trkpt lat="51.9978646282" lon="-2.2200126853"><ele>-42.51</ele><time>2023-03-15T10:53:00Z</time></trkpt><trkpt lat="51.9978812244" lon="-2.2199163772"><ele>-42.79</ele><time>2023-03-15T10:53:18Z</time></trkpt><trkpt lat="51.9979078788" lon="-2.2198180575"><ele>-42.12</ele><time>2023-03-15T10:53:44Z</time></trkpt><trkpt lat="51.9979194459" lon="-2.2195132077"><ele>-42.90</ele><time>2023-03-15T10:54:08Z</time></trkpt><trkpt lat="51.9979310967" lon="-2.2193161491"><ele>-43.43</ele><time>2023-03-15T10:54:31Z</time></trkpt><trkpt lat="51.9978937972" lon="-2.2192797717"><ele>-43.28</ele><time>2023-03-15T10:54:52Z</time></trkpt><trkpt lat="51.9977622014" lon="-2.2192584816"><ele>-44.04</ele><time>2023-03-15T10:55:17Z</time></trkpt><trkpt lat="51.9977202080" lon="-2.2192323301"><ele>-44.30</ele><time>2023-03-15T10:55:39Z</time></trkpt><trkpt lat="51.9977181964" lon="-2.2192203440"><ele>-44.64</ele><time>2023-03-15T10:56:04Z</time></trkpt><trkpt lat="51.9977062102" lon="-2.2192283068"><ele>-44.12</ele><time>2023-03-15T10:56:29Z</time></trkpt><trkpt lat="51.9976958167" lon="-2.2192369401"><ele>-44.12</ele><time>2023-03-15T10:56:52Z</time></trkpt><trkpt lat="51.9976912905" lon="-2.2192428913"><ele>-44.12</ele><time>2023-03-15T10:57:15Z</time></trkpt><trkpt lat="51.9976855069" lon="-2.2192682046"><ele>-44.12</ele><time>2023-03-15T10:57:37Z</time></trkpt><trkpt lat="51.9976901170" lon="-2.2192506865"><ele>-44.12</ele><time>2023-03-15T10:58:05Z</time></trkpt><trkpt lat="51.9976793882" lon="-2.2192559671"><ele>-44.12</ele><time>2023-03-15T10:58:30Z</time></trkpt><trkpt lat="51.9976806454" lon="-2.2192369401"><ele>-44.12</ele><time>2023-03-15T10:58:51Z</time></trkpt><trkpt lat="51.9976719283" lon="-2.2192421369"><ele>-44.12</ele><time>2023-03-15T10:59:15Z</time></trkpt><trkpt lat="51.9976689108" lon="-2.2192501836"><ele>-44.12</ele><time>2023-03-15T10:59:42Z</time></trkpt><trkpt lat="51.9976570085" lon="-2.2192420531"><ele>-44.12</ele><time>2023-03-15T11:00:08Z</time></trkpt><trkpt lat="51.9976700004" lon="-2.2192531172"><ele>-44.12</ele><time>2023-03-15T11:00:36Z</time></trkpt><trkpt lat="51.9976608641" lon="-2.2192463279"><ele>-44.12</ele><time>2023-03-15T11:01:06Z</time></trkpt><trkpt lat="51.9976528175" lon="-2.2192393709"><ele>-44.12</ele><time>2023-03-15T11:01:33Z</time></trkpt><trkpt lat="51.9976498839" lon="-2.2192408796"><ele>-44.12</ele><time>2023-03-15T11:02:06Z</time></trkpt><trkpt lat="51.9976451062" lon="-2.2192297317"><ele>-44.12</ele><time>2023-03-15T11:02:36Z</time></trkpt><trkpt lat="51.9976688270" lon="-2.2192481719"><ele>-44.12</ele><time>2023-03-15T11:03:01Z</time></trkpt><trkpt lat="51.9976903684" lon="-2.2192542069"><ele>-44.12</ele><time>2023-03-15T11:03:32Z</time></trkpt><trkpt lat="51.9976623729" lon="-2.2192190029"><ele>-44.12</ele><time>2023-03-15T11:03:55Z</time></trkpt><trkpt lat="51.9976676535" lon="-2.2192289773"><ele>-44.12</ele><time>2023-03-15T11:04:19Z</time></trkpt><trkpt lat="51.9976501353" lon="-2.2192242835"><ele>-44.12</ele><time>2023-03-15T11:04:45Z</time></trkpt><trkpt lat="51.9976606965" lon="-2.2192552965"><ele>-44.12</ele><time>2023-03-15T11:05:12Z</time></trkpt><trkpt lat="51.9976705033" lon="-2.2192423046"><ele>-44.12</ele><time>2023-03-15T11:05:41Z</time></trkpt><trkpt lat="51.9976413343" lon="-2.2192433942"><ele>-44.12</ele><time>2023-03-15T11:06:10Z</time></trkpt><trkpt lat="51.9976313598" lon="-2.2192342579"><ele>-44.12</ele><time>2023-03-15T11:06:39Z</time></trkpt><trkpt lat="51.9976430945" lon="-2.2192807775"><ele>-44.12</ele><time>2023-03-15T11:07:13Z</time></trkpt><trkpt lat="51.9976279233" lon="-2.2192330007"><ele>-44.12</ele><time>2023-03-15T11:07:44Z</time></trkpt><trkpt lat="51.9976188708" lon="-2.2192249540"><ele>-44.12</ele><time>2023-03-15T11:08:14Z</time></trkpt><trkpt lat="51.9976329524" lon="-2.2192366049"><ele>-44.12</ele><time>2023-03-15T11:08:42Z</time></trkpt><trkpt lat="51.9976358861" lon="-2.2192367725"><ele>-44.12</ele><time>2023-03-15T11:09:09Z</time></trkpt><trkpt lat="51.9976408314" lon="-2.2192391194"><ele>-44.12</ele><time>2023-03-15T11:09:33Z</time></trkpt><trkpt lat="51.9976744428" lon="-2.2192401253"><ele>-44.12</ele><time>2023-03-15T11:10:00Z</time></trkpt><trkpt lat="51.9976839144" lon="-2.2192567214"><ele>-44.12</ele><time>2023-03-15T11:10:30Z</time></trkpt><trkpt lat="51.9976167753" lon="-2.2191785183"><ele>-44.12</ele><time>2023-03-15T11:10:49Z</time></trkpt><trkpt lat="51.9974751212" lon="-2.2191000637"><ele>-44.12</ele><time>2023-03-15T11:11:15Z</time></trkpt><trkpt lat="51.9973982591" lon="-2.2189490218"><ele>-44.12</ele><time>2023-03-15T11:11:36Z</time></trkpt><trkpt lat="51.9972923957" lon="-2.2187298350"><ele>-44.12</ele><time>2023-03-15T11:11:57Z</time></trkpt><trkpt lat="51.9971934892" lon="-2.2185306810"><ele>-44.18</ele><time>2023-03-15T11:12:14Z</time></trkpt><trkpt lat="51.9970826805" lon="-2.2183347121"><ele>-45.16</ele><time>2023-03-15T11:12:33Z</time></trkpt><trkpt lat="51.9969930779" lon="-2.2181434371"><ele>-45.67</ele><time>2023-03-15T11:12:50Z</time></trkpt><trkpt lat="51.9968768209" lon="-2.2178947460"><ele>-46.71</ele><time>2023-03-15T11:13:13Z</time></trkpt><trkpt lat="51.9967587199" lon="-2.2176281177"><ele>-47.44</ele><time>2023-03-15T11:13:36Z</time></trkpt><trkpt lat="51.9966565445" lon="-2.2173857130"><ele>-47.98</ele><time>2023-03-15T11:13:56Z</time></trkpt><trkpt lat="51.9965884835" lon="-2.2172163986"><ele>-48.50</ele><time>2023-03-15T11:14:12Z</time></trkpt><trkpt lat="51.9965052512" lon="-2.2169900872"><ele>-48.84</ele><time>2023-03-15T11:14:30Z</time></trkpt><trkpt lat="51.9964107871" lon="-2.2167600878"><ele>-48.87</ele><time>2023-03-15T11:14:51Z</time></trkpt><trkpt lat="51.9963108748" lon="-2.2165345307"><ele>-49.13</ele><time>2023-03-15T11:15:11Z</time></trkpt><trkpt lat="51.9961975515" lon="-2.2162917908"><ele>-49.21</ele><time>2023-03-15T11:15:32Z</time></trkpt><trkpt lat="51.9961087033" lon="-2.2160581034"><ele>-49.53</ele><time>2023-03-15T11:15:52Z</time></trkpt><trkpt lat="51.9960097130" lon="-2.2158652358"><ele>-50.13</ele><time>2023-03-15T11:16:11Z</time></trkpt><trkpt lat="51.9959715754" lon="-2.2156655788"><ele>-50.56</ele><time>2023-03-15T11:16:32Z</time></trkpt><trkpt lat="51.9959644508" lon="-2.2156687640"><ele>-50.49</ele><time>2023-03-15T11:16:56Z</time></trkpt><trkpt lat="51.9959566556" lon="-2.2156224959"><ele>-50.56</ele><time>2023-03-15T11:17:23Z</time></trkpt><trkpt lat="51.9959502015" lon="-2.2156294528"><ele>-50.53</ele><time>2023-03-15T11:17:51Z</time></trkpt><trkpt lat="51.9959319290" lon="-2.2156115994"><ele>-50.53</ele><time>2023-03-15T11:18:21Z</time></trkpt><trkpt lat="51.9959340245" lon="-2.2156012896"><ele>-50.53</ele><time>2023-03-15T11:18:48Z</time></trkpt><trkpt lat="51.9958735909" lon="-2.2154739685"><ele>-50.53</ele><time>2023-03-15T11:19:08Z</time></trkpt><trkpt lat="51.9957932923" lon="-2.2152592242"><ele>-50.53</ele><time>2023-03-15T11:19:27Z</time></trkpt><trkpt lat="51.9956860878" lon="-2.2150524426"><ele>-51.29</ele><time>2023-03-15T11:19:46Z</time></trkpt><trkpt lat="51.9956026040" lon="-2.2148325853"><ele>-51.64</ele><time>2023-03-15T11:20:04Z</time></trkpt><trkpt lat="51.9955000933" lon="-2.2145832237"><ele>-51.77</ele><time>2023-03-15T11:20:27Z</time></trkpt><trkpt lat="51.9954689965" lon="-2.2144873347"><ele>-51.72</ele><time>2023-03-15T11:20:44Z</time></trkpt><trkpt lat="51.9954425097" lon="-2.2143232170"><ele>-51.98</ele><time>2023-03-15T11:20:58Z</time></trkpt><trkpt lat="51.9953984208" lon="-2.2140971571"><ele>-52.32</ele><time>2023-03-15T11:21:15Z</time></trkpt><trkpt lat="51.9953726046" lon="-2.2139507253"><ele>-52.80</ele><time>2023-03-15T11:21:33Z</time></trkpt><trkpt lat="51.9953501411" lon="-2.2138570156"><ele>-52.97</ele><time>2023-03-15T11:21:52Z</time></trkpt><trkpt lat="51.9953518175" lon="-2.2138444427"><ele>-51.83</ele><time>2023-03-15T11:22:07Z</time></trkpt><trkpt lat="51.9953522366" lon="-2.2137943190"><ele>-52.92</ele><time>2023-03-15T11:22:17Z</time></trkpt><trkpt lat="51.9954916276" lon="-2.2135216556"><ele>-53.63</ele><time>2023-03-15T11:22:35Z</time></trkpt><trkpt lat="51.9954880234" lon="-2.2133750562"><ele>-53.95</ele><time>2023-03-15T11:22:52Z</time></trkpt><trkpt lat="51.9954260811" lon="-2.2132776584"><ele>-55.33</ele><time>2023-03-15T11:23:06Z</time></trkpt><trkpt lat="51.9953591097" lon="-2.2132100165"><ele>-53.45</ele><time>2023-03-15T11:23:13Z</time></trkpt><trkpt lat="51.9952472113" lon="-2.2130811028"><ele>-55.72</ele><time>2023-03-15T11:23:25Z</time></trkpt><trkpt lat="51.9952316210" lon="-2.2130615730"><ele>-56.46</ele><time>2023-03-15T11:23:27Z</time></trkpt><trkpt lat="51.9951696787" lon="-2.2129717190"><ele>-53.90</ele><time>2023-03-15T11:23:37Z</time></trkpt><trkpt lat="51.9950737897" lon="-2.2127829585"><ele>-55.20</ele><time>2023-03-15T11:23:53Z</time></trkpt><trkpt lat="51.9949476421" lon="-2.2125525400"><ele>-55.50</ele><time>2023-03-15T11:24:15Z</time></trkpt><trkpt lat="51.9948667567" lon="-2.2123837285"><ele>-55.35</ele><time>2023-03-15T11:24:34Z</time></trkpt><trkpt lat="51.9948313851" lon="-2.2123555653"><ele>-55.26</ele><time>2023-03-15T11:24:57Z</time></trkpt><trkpt lat="51.9948197342" lon="-2.2123180982"><ele>-54.23</ele><time>2023-03-15T11:25:14Z</time></trkpt><trkpt lat="51.9947065786" lon="-2.2121291701"><ele>-54.85</ele><time>2023-03-15T11:25:37Z</time></trkpt><trkpt lat="51.9946077559" lon="-2.2119205445"><ele>-54.85</ele><time>2023-03-15T11:25:56Z</time></trkpt><trkpt lat="51.9945054129" lon="-2.2117068898"><ele>-55.93</ele><time>2023-03-15T11:26:15Z</time></trkpt><trkpt lat="51.9944000524" lon="-2.2115343064"><ele>-56.33</ele><time>2023-03-15T11:26:33Z</time></trkpt><trkpt lat="51.9942822028" lon="-2.2113008704"><ele>-55.63</ele><time>2023-03-15T11:26:52Z</time></trkpt><trkpt lat="51.9942345936" lon="-2.2111420333"><ele>-56.60</ele><time>2023-03-15T11:27:08Z</time></trkpt><trkpt lat="51.9941618387" lon="-2.2109309770"><ele>-57.32</ele><time>2023-03-15T11:27:25Z</time></trkpt><trkpt lat="51.9941430632" lon="-2.2108060867"><ele>-58.08</ele><time>2023-03-15T11:27:43Z</time></trkpt><trkpt lat="51.9941432308" lon="-2.2107495088"><ele>-59.11</ele><time>2023-03-15T11:28:07Z</time></trkpt><trkpt lat="51.9941788539" lon="-2.2107037436"><ele>-58.55</ele><time>2023-03-15T11:28:31Z</time></trkpt><trkpt lat="51.9942070171" lon="-2.2106597386"><ele>-57.76</ele><time>2023-03-15T11:29:03Z</time></trkpt><trkpt lat="51.9943782594" lon="-2.2106395382"><ele>-57.90</ele><time>2023-03-15T11:29:22Z</time></trkpt><trkpt lat="51.9945179019" lon="-2.2106400412"><ele>-57.39</ele><time>2023-03-15T11:29:41Z</time></trkpt><trkpt lat="51.9947063271" lon="-2.2106464952"><ele>-56.58</ele><time>2023-03-15T11:30:03Z</time></trkpt><trkpt lat="51.9948756415" lon="-2.2106436454"><ele>-55.64</ele><time>2023-03-15T11:30:25Z</time></trkpt><trkpt lat="51.9950425252" lon="-2.2106706351"><ele>-54.74</ele><time>2023-03-15T11:30:46Z</time></trkpt><trkpt lat="51.9952379074" lon="-2.2106596548"><ele>-53.69</ele><time>2023-03-15T11:31:08Z</time></trkpt><trkpt lat="51.9954247400" lon="-2.2106278874"><ele>-52.55</ele><time>2023-03-15T11:31:31Z</time></trkpt><trkpt lat="51.9955984969" lon="-2.2106262110"><ele>-51.58</ele><time>2023-03-15T11:31:51Z</time></trkpt><trkpt lat="51.9957944658" lon="-2.2105724830"><ele>-49.96</ele><time>2023-03-15T11:32:16Z</time></trkpt><trkpt lat="51.9959841482" lon="-2.2105279751"><ele>-48.54</ele><time>2023-03-15T11:32:38Z</time></trkpt><trkpt lat="51.9961380400" lon="-2.2104861494"><ele>-47.61</ele><time>2023-03-15T11:32:57Z</time></trkpt><trkpt lat="51.9962504413" lon="-2.2104329243"><ele>-46.85</ele><time>2023-03-15T11:33:16Z</time></trkpt><trkpt lat="51.9963915925" lon="-2.2103871591"><ele>-46.30</ele><time>2023-03-15T11:33:35Z</time></trkpt><trkpt lat="51.9965029880" lon="-2.2103021666"><ele>-45.35</ele><time>2023-03-15T11:33:54Z</time></trkpt><trkpt lat="51.9966058340" lon="-2.2102502827"><ele>-44.47</ele><time>2023-03-15T11:34:13Z</time></trkpt><trkpt lat="51.9967520144" lon="-2.2101477720"><ele>-43.21</ele><time>2023-03-15T11:34:36Z</time></trkpt><trkpt lat="51.9968296308" lon="-2.2100876737"><ele>-42.41</ele><time>2023-03-15T11:34:58Z</time></trkpt><trkpt lat="51.9969924912" lon="-2.2099647112"><ele>-41.40</ele><time>2023-03-15T11:35:18Z</time></trkpt><trkpt lat="51.9971437007" lon="-2.2098393179"><ele>-40.03</ele><time>2023-03-15T11:35:39Z</time></trkpt><trkpt lat="51.9972552639" lon="-2.2097155172"><ele>-38.97</ele><time>2023-03-15T11:36:01Z</time></trkpt><trkpt lat="51.9972490612" lon="-2.2096128389"><ele>-38.05</ele><time>2023-03-15T11:36:25Z</time></trkpt><trkpt lat="51.9972335547" lon="-2.2095694207"><ele>-37.77</ele><time>2023-03-15T11:36:48Z</time></trkpt><trkpt lat="51.9972552639" lon="-2.2095529083"><ele>-37.89</ele><time>2023-03-15T11:37:09Z</time></trkpt><trkpt lat="51.9973093271" lon="-2.2097170260"><ele>-38.62</ele><time>2023-03-15T11:37:31Z</time></trkpt><trkpt lat="51.9973743707" lon="-2.2096667346"><ele>-38.42</ele><time>2023-03-15T11:37:53Z</time></trkpt><trkpt lat="51.9976398256" lon="-2.2095795628"><ele>-39.75</ele><time>2023-03-15T11:38:17Z</time></trkpt><trkpt lat="51.9976968225" lon="-2.2095417604"><ele>-40.62</ele><time>2023-03-15T11:38:28Z</time></trkpt><trkpt lat="51.9979103934" lon="-2.2094913851"><ele>-41.95</ele><time>2023-03-15T11:38:52Z</time></trkpt><trkpt lat="51.9981248863" lon="-2.2094401717"><ele>-43.56</ele><time>2023-03-15T11:39:17Z</time></trkpt><trkpt lat="51.9982828852" lon="-2.2094011120"><ele>-44.54</ele><time>2023-03-15T11:39:38Z</time></trkpt><trkpt lat="51.9984213542" lon="-2.2094289400"><ele>-45.01</ele><time>2023-03-15T11:39:56Z</time></trkpt><trkpt lat="51.9985593203" lon="-2.2094906308"><ele>-45.69</ele><time>2023-03-15T11:40:14Z</time></trkpt><trkpt lat="51.9985655230" lon="-2.2095583566"><ele>-45.39</ele><time>2023-03-15T11:40:28Z</time></trkpt><trkpt lat="51.9985909201" lon="-2.2096171975"><ele>-45.27</ele><time>2023-03-15T11:40:44Z</time></trkpt><trkpt lat="51.9986221008" lon="-2.2098514717"><ele>-45.39</ele><time>2023-03-15T11:41:03Z</time></trkpt><trkpt lat="51.9986411277" lon="-2.2100605164"><ele>-45.04</ele><time>2023-03-15T11:41:21Z</time></trkpt><trkpt lat="51.9986500125" lon="-2.2101512924"><ele>-44.82</ele><time>2023-03-15T11:41:30Z</time></trkpt><trkpt lat="51.9986641780" lon="-2.2103063576"><ele>-44.47</ele><time>2023-03-15T11:41:40Z</time></trkpt><trkpt lat="51.9986609090" lon="-2.2104522027"><ele>-44.16</ele><time>2023-03-15T11:41:51Z</time></trkpt><trkpt lat="51.9986649323" lon="-2.2105242871"><ele>-44.16</ele><time>2023-03-15T11:41:57Z</time></trkpt><trkpt lat="51.9986768346" lon="-2.2107012291"><ele>-43.77</ele><time>2023-03-15T11:42:11Z</time></trkpt><trkpt lat="51.9986839592" lon="-2.2109026462"><ele>-43.54</ele><time>2023-03-15T11:42:28Z</time></trkpt><trkpt lat="51.9986785110" lon="-2.2110251058"><ele>-43.20</ele><time>2023-03-15T11:42:40Z</time></trkpt><trkpt lat="51.9986818638" lon="-2.2111977730"><ele>-42.91</ele><time>2023-03-15T11:42:54Z</time></trkpt><trkpt lat="51.9986757450" lon="-2.2114709392"><ele>-42.35</ele><time>2023-03-15T11:43:14Z</time></trkpt><trkpt lat="51.9986953586" lon="-2.2117531579"><ele>-41.72</ele><time>2023-03-15T11:43:37Z</time></trkpt><trkpt lat="51.9987148046" lon="-2.2120509669"><ele>-41.30</ele><time>2023-03-15T11:43:58Z</time></trkpt><trkpt lat="51.9987218454" lon="-2.2121204529"><ele>-41.37</ele><time>2023-03-15T11:44:17Z</time></trkpt><trkpt lat="51.9987309817" lon="-2.2121879272"><ele>-41.12</ele><time>2023-03-15T11:44:41Z</time></trkpt><trkpt lat="51.9987422135" lon="-2.2123876680"><ele>-41.57</ele><time>2023-03-15T11:44:59Z</time></trkpt><trkpt lat="51.9988332409" lon="-2.2125182580"><ele>-41.70</ele><time>2023-03-15T11:45:17Z</time></trkpt><trkpt lat="51.9989311416" lon="-2.2125460021"><ele>-41.70</ele><time>2023-03-15T11:45:38Z</time></trkpt><trkpt lat="51.9990154635" lon="-2.2125800326"><ele>-41.70</ele><time>2023-03-15T11:46:00Z</time></trkpt><trkpt lat="51.9991747197" lon="-2.2126112971"><ele>-41.70</ele><time>2023-03-15T11:46:20Z</time></trkpt><trkpt lat="51.9992147852" lon="-2.2125941142"><ele>-41.70</ele><time>2023-03-15T11:46:40Z</time></trkpt><trkpt lat="51.9992249273" lon="-2.2125610895"><ele>-41.70</ele><time>2023-03-15T11:47:01Z</time></trkpt><trkpt lat="51.9992247596" lon="-2.2125697229"><ele>-35.20</ele><time>2023-03-15T11:47:12Z</time></trkpt><trkpt lat="51.9992283639" lon="-2.2125782724"><ele>-36.71</ele><time>2023-03-15T11:47:13Z</time></trkpt><trkpt lat="51.9992592931" lon="-2.2126102075"><ele>-39.82</ele><time>2023-03-15T11:47:21Z</time></trkpt><trkpt lat="51.9992825110" lon="-2.2126101237"><ele>-42.94</ele><time>2023-03-15T11:47:26Z</time></trkpt><trkpt lat="51.9992841873" lon="-2.2126144823"><ele>-43.17</ele><time>2023-03-15T11:47:27Z</time></trkpt><trkpt lat="51.9994226564" lon="-2.2126404662"><ele>-41.25</ele><time>2023-03-15T11:47:41Z</time></trkpt><trkpt lat="51.9996622112" lon="-2.2126957029"><ele>-39.89</ele><time>2023-03-15T11:48:01Z</time></trkpt><trkpt lat="51.9999370538" lon="-2.2127368581"><ele>-40.20</ele><time>2023-03-15T11:48:24Z</time></trkpt><trkpt lat="52.0001512952" lon="-2.2127734032"><ele>-39.63</ele><time>2023-03-15T11:48:44Z</time></trkpt><trkpt lat="52.0003607590" lon="-2.2127991356"><ele>-39.05</ele><time>2023-03-15T11:48:58Z</time></trkpt><trkpt lat="52.0005861484" lon="-2.2128128819"><ele>-38.82</ele><time>2023-03-15T11:49:15Z</time></trkpt><trkpt lat="52.0008004736" lon="-2.2128088586"><ele>-38.57</ele><time>2023-03-15T11:49:36Z</time></trkpt><trkpt lat="52.0009251963" lon="-2.2127868980"><ele>-38.04</ele><time>2023-03-15T11:49:58Z</time></trkpt><trkpt lat="52.0010049921" lon="-2.2127806954"><ele>-38.19</ele><time>2023-03-15T11:50:22Z</time></trkpt><trkpt lat="52.0012298785" lon="-2.2127521969"><ele>-38.26</ele><time>2023-03-15T11:50:46Z</time></trkpt><trkpt lat="52.0013393462" lon="-2.2127245367"><ele>-38.08</ele><time>2023-03-15T11:51:09Z</time></trkpt><trkpt lat="52.0013774838" lon="-2.2127427254"><ele>-38.05</ele><time>2023-03-15T11:51:33Z</time></trkpt><trkpt lat="52.0015572757" lon="-2.2127672844"><ele>-37.79</ele><time>2023-03-15T11:51:55Z</time></trkpt><trkpt lat="52.0017265901" lon="-2.2127344273"><ele>-37.29</ele><time>2023-03-15T11:52:19Z</time></trkpt><trkpt lat="52.0018068049" lon="-2.2127348464"><ele>-37.40</ele><time>2023-03-15T11:52:36Z</time></trkpt><trkpt lat="52.0020300150" lon="-2.2126811184"><ele>-36.85</ele><time>2023-03-15T11:52:58Z</time></trkpt><trkpt lat="52.0022075437" lon="-2.2126375325"><ele>-36.60</ele><time>2023-03-15T11:53:21Z</time></trkpt><trkpt lat="52.0024072006" lon="-2.2125558928"><ele>-36.20</ele><time>2023-03-15T11:53:46Z</time></trkpt><trkpt lat="52.0026177540" lon="-2.2124543041"><ele>-36.00</ele><time>2023-03-15T11:54:09Z</time></trkpt><trkpt lat="52.0027060993" lon="-2.2123947926"><ele>-35.73</ele><time>2023-03-15T11:54:18Z</time></trkpt><trkpt lat="52.0027544629" lon="-2.2123729996"><ele>-35.36</ele><time>2023-03-15T11:54:40Z</time></trkpt><trkpt lat="52.0026642736" lon="-2.2125164140"><ele>-35.58</ele><time>2023-03-15T11:55:04Z</time></trkpt><trkpt lat="52.0025225356" lon="-2.2125700582"><ele>-36.12</ele><time>2023-03-15T11:55:22Z</time></trkpt><trkpt lat="52.0023502037" lon="-2.2126335930"><ele>-36.32</ele><time>2023-03-15T11:55:43Z</time></trkpt><trkpt lat="52.0022195298" lon="-2.2126606666"><ele>-36.60</ele><time>2023-03-15T11:56:04Z</time></trkpt><trkpt lat="52.0020259079" lon="-2.2126974631"><ele>-37.08</ele><time>2023-03-15T11:56:27Z</time></trkpt><trkpt lat="52.0018470380" lon="-2.2127506882"><ele>-37.16</ele><time>2023-03-15T11:56:48Z</time></trkpt><trkpt lat="52.0017057192" lon="-2.2127958667"><ele>-37.49</ele><time>2023-03-15T11:57:10Z</time></trkpt><trkpt lat="52.0014987700" lon="-2.2128525283"><ele>-37.91</ele><time>2023-03-15T11:57:30Z</time></trkpt><trkpt lat="52.0014505740" lon="-2.2129576374"><ele>-38.12</ele><time>2023-03-15T11:57:50Z</time></trkpt><trkpt lat="52.0014224946" lon="-2.2129981220"><ele>-38.02</ele><time>2023-03-15T11:58:08Z</time></trkpt><trkpt lat="52.0014152862" lon="-2.2130125389"><ele>-38.28</ele><time>2023-03-15T11:58:28Z</time></trkpt><trkpt lat="52.0015903004" lon="-2.2131842840"><ele>-36.66</ele><time>2023-03-15T11:58:48Z</time></trkpt><trkpt lat="52.0016369876" lon="-2.2132906504"><ele>-37.98</ele><time>2023-03-15T11:58:57Z</time></trkpt><trkpt lat="52.0017363131" lon="-2.2134388424"><ele>-38.42</ele><time>2023-03-15T11:59:14Z</time></trkpt><trkpt lat="52.0018880256" lon="-2.2137394175"><ele>-38.56</ele><time>2023-03-15T11:59:40Z</time></trkpt><trkpt lat="52.0019797236" lon="-2.2139646392"><ele>-38.90</ele><time>2023-03-15T11:59:58Z</time></trkpt><trkpt lat="52.0020824019" lon="-2.2142037749"><ele>-38.87</ele><time>2023-03-15T12:00:18Z</time></trkpt><trkpt lat="52.0022039395" lon="-2.2144408990"><ele>-39.13</ele><time>2023-03-15T12:00:39Z</time></trkpt><trkpt lat="52.0022420771" lon="-2.2145372070"><ele>-39.45</ele><time>2023-03-15T12:00:47Z</time></trkpt><trkpt lat="52.0023455098" lon="-2.2147527896"><ele>-39.73</ele><time>2023-03-15T12:01:06Z</time></trkpt><trkpt lat="52.0024441648" lon="-2.2149645165"><ele>-39.94</ele><time>2023-03-15T12:01:26Z</time></trkpt><trkpt lat="52.0025560632" lon="-2.2151860502"><ele>-39.78</ele><time>2023-03-15T12:01:47Z</time></trkpt><trkpt lat="52.0026671235" lon="-2.2154640779"><ele>-39.59</ele><time>2023-03-15T12:02:09Z</time></trkpt><trkpt lat="52.0028039161" lon="-2.2157302871"><ele>-39.32</ele><time>2023-03-15T12:02:32Z</time></trkpt><trkpt lat="52.0029233582" lon="-2.2160149366"><ele>-39.06</ele><time>2023-03-15T12:02:55Z</time></trkpt><trkpt lat="52.0030310657" lon="-2.2162787151"><ele>-38.87</ele><time>2023-03-15T12:03:15Z</time></trkpt><trkpt lat="52.0031292178" lon="-2.2165386379"><ele>-37.96</ele><time>2023-03-15T12:03:36Z</time></trkpt><trkpt lat="52.0030796807" lon="-2.2165329382"><ele>-37.14</ele><time>2023-03-15T12:03:55Z</time></trkpt><trkpt lat="52.0030723047" lon="-2.2165107261"><ele>-37.14</ele><time>2023-03-15T12:03:58Z</time></trkpt><trkpt lat="52.0031007193" lon="-2.2165009193"><ele>-37.14</ele><time>2023-03-15T12:04:18Z</time></trkpt><trkpt lat="52.0031603985" lon="-2.2165650409"><ele>-37.14</ele><time>2023-03-15T12:04:27Z</time></trkpt><trkpt lat="52.0031883102" lon="-2.2166226245"><ele>-39.20</ele><time>2023-03-15T12:04:31Z</time></trkpt><trkpt lat="52.0032048225" lon="-2.2166410647"><ele>-39.09</ele><time>2023-03-15T12:04:33Z</time></trkpt><trkpt lat="52.0032579638" lon="-2.2167114727"><ele>-37.27</ele><time>2023-03-15T12:04:38Z</time></trkpt><trkpt lat="52.0032847859" lon="-2.2167531308"><ele>-35.70</ele><time>2023-03-15T12:04:41Z</time></trkpt><trkpt lat="52.0033236779" lon="-2.2168203536"><ele>-36.01</ele><time>2023-03-15T12:04:46Z</time></trkpt><trkpt lat="52.0035213232" lon="-2.2170503531"><ele>-36.40</ele><time>2023-03-15T12:05:03Z</time></trkpt><trkpt lat="52.0036906376" lon="-2.2171811946"><ele>-36.25</ele><time>2023-03-15T12:05:17Z</time></trkpt><trkpt lat="52.0037207287" lon="-2.2171930131"><ele>-36.24</ele><time>2023-03-15T12:05:19Z</time></trkpt><trkpt lat="52.0038783923" lon="-2.2173283808"><ele>-36.56</ele><time>2023-03-15T12:05:34Z</time></trkpt><trkpt lat="52.0040528197" lon="-2.2174397763"><ele>-37.16</ele><time>2023-03-15T12:05:55Z</time></trkpt><trkpt lat="52.0041848347" lon="-2.2176685184"><ele>-37.75</ele><time>2023-03-15T12:06:15Z</time></trkpt><trkpt lat="52.0043658838" lon="-2.2177774832"><ele>-38.02</ele><time>2023-03-15T12:06:37Z</time></trkpt><trkpt lat="52.0044648740" lon="-2.2178265173"><ele>-38.04</ele><time>2023-03-15T12:06:50Z</time></trkpt><trkpt lat="52.0046236273" lon="-2.2180075664"><ele>-38.33</ele><time>2023-03-15T12:07:11Z</time></trkpt><trkpt lat="52.0046534669" lon="-2.2181506455"><ele>-39.02</ele><time>2023-03-15T12:07:29Z</time></trkpt><trkpt lat="52.0046225376" lon="-2.2182402480"><ele>-38.99</ele><time>2023-03-15T12:07:50Z</time></trkpt><trkpt lat="52.0045976434" lon="-2.2182411700"><ele>-38.78</ele><time>2023-03-15T12:08:13Z</time></trkpt><trkpt lat="52.0046035945" lon="-2.2182328720"><ele>-38.05</ele><time>2023-03-15T12:08:35Z</time></trkpt><trkpt lat="52.0045967214" lon="-2.2182212211"><ele>-38.68</ele><time>2023-03-15T12:09:01Z</time></trkpt><trkpt lat="52.0045815501" lon="-2.2182309441"><ele>-38.68</ele><time>2023-03-15T12:09:29Z</time></trkpt><trkpt lat="52.0046284888" lon="-2.2181545850"><ele>-38.68</ele><time>2023-03-15T12:09:54Z</time></trkpt><trkpt lat="52.0045923628" lon="-2.2182207182"><ele>-38.68</ele><time>2023-03-15T12:10:13Z</time></trkpt><trkpt lat="52.0045864116" lon="-2.2182638012"><ele>-38.68</ele><time>2023-03-15T12:10:15Z</time></trkpt><trkpt lat="52.0045057777" lon="-2.2185471933"><ele>-37.84</ele><time>2023-03-15T12:10:31Z</time></trkpt><trkpt lat="52.0044382196" lon="-2.2188008297"><ele>-37.56</ele><time>2023-03-15T12:10:48Z</time></trkpt><trkpt lat="52.0044031832" lon="-2.2189335991"><ele>-37.74</ele><time>2023-03-15T12:10:59Z</time></trkpt><trkpt lat="52.0043823123" lon="-2.2190030012"><ele>-37.79</ele><time>2023-03-15T12:11:03Z</time></trkpt><trkpt lat="52.0042953920" lon="-2.2192491777"><ele>-37.54</ele><time>2023-03-15T12:11:21Z</time></trkpt><trkpt lat="52.0042078849" lon="-2.2194571327"><ele>-37.52</ele><time>2023-03-15T12:11:37Z</time></trkpt><trkpt lat="52.0041289274" lon="-2.2196197417"><ele>-37.67</ele><time>2023-03-15T12:11:53Z</time></trkpt><trkpt lat="52.0040315297" lon="-2.2198318038"><ele>-38.58</ele><time>2023-03-15T12:12:12Z</time></trkpt><trkpt lat="52.0039638039" lon="-2.2200120986"><ele>-38.24</ele><time>2023-03-15T12:12:27Z</time></trkpt><trkpt lat="52.0038986765" lon="-2.2201887891"><ele>-39.15</ele><time>2023-03-15T12:12:44Z</time></trkpt><trkpt lat="52.0037818328" lon="-2.2204410005"><ele>-40.04</ele><time>2023-03-15T12:13:05Z</time></trkpt><trkpt lat="52.0037504844" lon="-2.2205083910"><ele>-40.21</ele><time>2023-03-15T12:13:11Z</time></trkpt><trkpt lat="52.0036701020" lon="-2.2207049467"><ele>-40.71</ele><time>2023-03-15T12:13:30Z</time></trkpt><trkpt lat="52.0035765599" lon="-2.2209069505"><ele>-41.33</ele><time>2023-03-15T12:13:48Z</time></trkpt><trkpt lat="52.0035030507" lon="-2.2211418953"><ele>-42.07</ele><time>2023-03-15T12:14:10Z</time></trkpt><trkpt lat="52.0034269430" lon="-2.2213792708"><ele>-42.53</ele><time>2023-03-15T12:14:28Z</time></trkpt><trkpt lat="52.0033934154" lon="-2.2214816138"><ele>-42.94</ele><time>2023-03-15T12:14:40Z</time></trkpt><trkpt lat="52.0033872128" lon="-2.2215173207"><ele>-43.13</ele><time>2023-03-15T12:14:43Z</time></trkpt><trkpt lat="52.0032773260" lon="-2.2217260301"><ele>-43.21</ele><time>2023-03-15T12:14:59Z</time></trkpt><trkpt lat="52.0032009669" lon="-2.2218693607"><ele>-42.93</ele><time>2023-03-15T12:15:13Z</time></trkpt><trkpt lat="52.0031935908" lon="-2.2219074983"><ele>-43.08</ele><time>2023-03-15T12:15:29Z</time></trkpt><trkpt lat="52.0032436308" lon="-2.2219444625"><ele>-42.98</ele><time>2023-03-15T12:15:49Z</time></trkpt><trkpt lat="52.0032422896" lon="-2.2219696920"><ele>-43.03</ele><time>2023-03-15T12:16:08Z</time></trkpt><trkpt lat="52.0032530185" lon="-2.2219179757"><ele>-43.23</ele><time>2023-03-15T12:16:27Z</time></trkpt><trkpt lat="52.0032834448" lon="-2.2219131980"><ele>-43.43</ele><time>2023-03-15T12:16:52Z</time></trkpt><trkpt lat="52.0032688603" lon="-2.2219557781"><ele>-43.06</ele><time>2023-03-15T12:17:15Z</time></trkpt><trkpt lat="52.0032204967" lon="-2.2221557703"><ele>-42.94</ele><time>2023-03-15T12:17:33Z</time></trkpt><trkpt lat="52.0031893160" lon="-2.2221668344"><ele>-43.41</ele><time>2023-03-15T12:17:52Z</time></trkpt><trkpt lat="52.0031585544" lon="-2.2222157847"><ele>-43.41</ele><time>2023-03-15T12:18:11Z</time></trkpt><trkpt lat="52.0031897351" lon="-2.2222585324"><ele>-43.41</ele><time>2023-03-15T12:18:29Z</time></trkpt><trkpt lat="52.0031595603" lon="-2.2224223986"><ele>-43.41</ele><time>2023-03-15T12:18:47Z</time></trkpt><trkpt lat="52.0031295530" lon="-2.2224510647"><ele>-43.41</ele><time>2023-03-15T12:18:58Z</time></trkpt><trkpt lat="52.0030970313" lon="-2.2225223109"><ele>-43.41</ele><time>2023-03-15T12:19:03Z</time></trkpt><trkpt lat="52.0029743202" lon="-2.2228269093"><ele>-42.82</ele><time>2023-03-15T12:19:22Z</time></trkpt><trkpt lat="52.0028747432" lon="-2.2230858263"><ele>-41.12</ele><time>2023-03-15T12:19:42Z</time></trkpt><trkpt lat="52.0027981326" lon="-2.2232929431"><ele>-40.06</ele><time>2023-03-15T12:20:03Z</time></trkpt><trkpt lat="52.0027169120" lon="-2.2235278878"><ele>-39.43</ele><time>2023-03-15T12:20:22Z</time></trkpt><trkpt lat="52.0026925206" lon="-2.2235798556"><ele>-38.76</ele><time>2023-03-15T12:20:39Z</time></trkpt><trkpt lat="52.0025559794" lon="-2.2238381021"><ele>-37.84</ele><time>2023-03-15T12:20:59Z</time></trkpt><trkpt lat="52.0024666283" lon="-2.2240240127"><ele>-36.96</ele><time>2023-03-15T12:21:17Z</time></trkpt><trkpt lat="52.0024103858" lon="-2.2240911517"><ele>-36.66</ele><time>2023-03-15T12:21:24Z</time></trkpt><trkpt lat="52.0023321826" lon="-2.2242039721"><ele>-35.82</ele><time>2023-03-15T12:21:41Z</time></trkpt><trkpt lat="52.0023123175" lon="-2.2242252622"><ele>-35.61</ele><time>2023-03-15T12:22:03Z</time></trkpt><trkpt lat="52.0022609364" lon="-2.2241887171"><ele>-34.75</ele><time>2023-03-15T12:22:19Z</time></trkpt><trkpt lat="52.0022606850" lon="-2.2241377551"><ele>-35.13</ele><time>2023-03-15T12:22:34Z</time></trkpt><trkpt lat="52.0023632795" lon="-2.2242416907"><ele>-36.96</ele><time>2023-03-15T12:22:48Z</time></trkpt><trkpt lat="52.0024305023" lon="-2.2242903896"><ele>-36.23</ele><time>2023-03-15T12:22:55Z</time></trkpt><trkpt lat="52.0025346894" lon="-2.2244530823"><ele>-33.14</ele><time>2023-03-15T12:23:07Z</time></trkpt><trkpt lat="52.0025413949" lon="-2.2244710196"><ele>-32.91</ele><time>2023-03-15T12:23:08Z</time></trkpt><trkpt lat="52.0026418939" lon="-2.2246244922"><ele>-34.89</ele><time>2023-03-15T12:23:27Z</time></trkpt><trkpt lat="52.0027946960" lon="-2.2248022724"><ele>-34.89</ele><time>2023-03-15T12:23:46Z</time></trkpt><trkpt lat="52.0029496774" lon="-2.2249569185"><ele>-34.89</ele><time>2023-03-15T12:24:06Z</time></trkpt><trkpt lat="52.0030416269" lon="-2.2250806354"><ele>-34.89</ele><time>2023-03-15T12:24:22Z</time></trkpt><trkpt lat="52.0030586421" lon="-2.2252279893"><ele>-34.89</ele><time>2023-03-15T12:24:38Z</time></trkpt><trkpt lat="52.0031070057" lon="-2.2254312504"><ele>-34.89</ele><time>2023-03-15T12:25:00Z</time></trkpt><trkpt lat="52.0030985400" lon="-2.2254444938"><ele>-34.89</ele><time>2023-03-15T12:25:22Z</time></trkpt></trkseg></trk></gpx>